sensor_id;sensor_type;location;lat;lon;timestamp;P1;durP1;ratioP1;P2;durP2;ratioP2
50267;SDS011;36153;50.960;6.220;2023-04-12T00:02:31;5.35;;;1.10;;
50267;SDS011;36153;50.960;6.220;2023-04-12T00:05:34;6.22;;;0.95;;
50267;SDS011;36153;50.960;6.220;2023-04-12T00:08:36;4.22;;;1.10;;
50267;SDS011;36153;50.960;6.220;2023-04-12T00:11:37;4.43;;;0.70;;
50267;SDS011;36153;50.960;6.220;2023-04-12T00:14:38;4.10;;;0.90;;
50267;SDS011;36153;50.960;6.220;2023-04-12T00:17:38;1.98;;;0.90;;
50267;SDS011;36153;50.960;6.220;2023-04-12T00:20:39;1.67;;;0.77;;
50267;SDS011;36153;50.960;6.220;2023-04-12T00:23:40;1.40;;;0.60;;
50267;SDS011;36153;50.960;6.220;2023-04-12T00:26:40;1.60;;;0.70;;
50267;SDS011;36153;50.960;6.220;2023-04-12T00:29:40;3.58;;;0.93;;
50267;SDS011;36153;50.960;6.220;2023-04-12T00:32:41;1.83;;;0.82;;
50267;SDS011;36153;50.960;6.220;2023-04-12T00:35:41;3.25;;;1.05;;
50267;SDS011;36153;50.960;6.220;2023-04-12T00:38:41;5.30;;;1.65;;
50267;SDS011;36153;50.960;6.220;2023-04-12T00:41:42;1.63;;;0.68;;
50267;SDS011;36153;50.960;6.220;2023-04-12T00:44:42;1.80;;;0.65;;
50267;SDS011;36153;50.960;6.220;2023-04-12T00:47:43;1.58;;;0.63;;
50267;SDS011;36153;50.960;6.220;2023-04-12T00:50:44;1.30;;;0.52;;
50267;SDS011;36153;50.960;6.220;2023-04-12T00:53:45;2.38;;;0.60;;
50267;SDS011;36153;50.960;6.220;2023-04-12T00:56:46;1.70;;;0.47;;
50267;SDS011;36153;50.960;6.220;2023-04-12T00:59:47;2.35;;;0.50;;
50267;SDS011;36153;50.960;6.220;2023-04-12T01:02:47;3.75;;;0.85;;
50267;SDS011;36153;50.960;6.220;2023-04-12T01:05:51;1.60;;;0.68;;
50267;SDS011;36153;50.960;6.220;2023-04-12T01:12:24;1.00;;;0.73;;
50267;SDS011;36153;50.960;6.220;2023-04-12T01:15:25;3.50;;;1.00;;
50267;SDS011;36153;50.960;6.220;2023-04-12T01:18:32;1.70;;;0.90;;
50267;SDS011;36153;50.960;6.220;2023-04-12T01:28:04;1.35;;;0.55;;
50267;SDS011;36153;50.960;6.220;2023-04-12T01:31:05;1.60;;;0.57;;
50267;SDS011;36153;50.960;6.220;2023-04-12T01:34:08;1.27;;;0.88;;
50267;SDS011;36153;50.960;6.220;2023-04-12T01:37:11;1.20;;;0.55;;
50267;SDS011;36153;50.960;6.220;2023-04-12T01:40:12;0.82;;;0.40;;
50267;SDS011;36153;50.960;6.220;2023-04-12T01:43:12;1.42;;;0.50;;
50267;SDS011;36153;50.960;6.220;2023-04-12T01:46:17;1.95;;;0.63;;
50267;SDS011;36153;50.960;6.220;2023-04-12T01:49:21;1.05;;;0.70;;
50267;SDS011;36153;50.960;6.220;2023-04-12T01:52:30;1.30;;;0.75;;
50267;SDS011;36153;50.960;6.220;2023-04-12T01:55:36;1.02;;;0.60;;
50267;SDS011;36153;50.960;6.220;2023-04-12T01:58:38;1.05;;;0.65;;
50267;SDS011;36153;50.960;6.220;2023-04-12T02:01:40;1.98;;;0.55;;
50267;SDS011;36153;50.960;6.220;2023-04-12T02:04:41;1.08;;;0.50;;
50267;SDS011;36153;50.960;6.220;2023-04-12T02:07:42;0.85;;;0.63;;
50267;SDS011;36153;50.960;6.220;2023-04-12T02:10:44;1.98;;;0.70;;
50267;SDS011;36153;50.960;6.220;2023-04-12T02:13:45;1.65;;;0.60;;
50267;SDS011;36153;50.960;6.220;2023-04-12T02:16:45;1.42;;;0.50;;
50267;SDS011;36153;50.960;6.220;2023-04-12T02:19:46;1.33;;;0.70;;
50267;SDS011;36153;50.960;6.220;2023-04-12T02:22:47;1.17;;;0.50;;
50267;SDS011;36153;50.960;6.220;2023-04-12T02:25:47;2.35;;;0.70;;
50267;SDS011;36153;50.960;6.220;2023-04-12T02:28:48;0.60;;;0.43;;
50267;SDS011;36153;50.960;6.220;2023-04-12T02:31:48;2.03;;;0.70;;
50267;SDS011;36153;50.960;6.220;2023-04-12T02:34:48;1.00;;;0.65;;
50267;SDS011;36153;50.960;6.220;2023-04-12T02:37:50;1.27;;;0.50;;
50267;SDS011;36153;50.960;6.220;2023-04-12T02:40:50;1.02;;;0.45;;
50267;SDS011;36153;50.960;6.220;2023-04-12T02:43:51;1.00;;;0.68;;
50267;SDS011;36153;50.960;6.220;2023-04-12T02:46:51;2.45;;;0.63;;
50267;SDS011;36153;50.960;6.220;2023-04-12T02:49:51;2.67;;;0.82;;
50267;SDS011;36153;50.960;6.220;2023-04-12T02:52:52;0.55;;;0.30;;
50267;SDS011;36153;50.960;6.220;2023-04-12T02:55:52;0.60;;;0.40;;
50267;SDS011;36153;50.960;6.220;2023-04-12T02:58:52;0.65;;;0.50;;
50267;SDS011;36153;50.960;6.220;2023-04-12T03:01:53;0.70;;;0.40;;
50267;SDS011;36153;50.960;6.220;2023-04-12T03:04:53;0.98;;;0.50;;
50267;SDS011;36153;50.960;6.220;2023-04-12T03:07:56;0.70;;;0.28;;
50267;SDS011;36153;50.960;6.220;2023-04-12T03:10:56;1.85;;;0.50;;
50267;SDS011;36153;50.960;6.220;2023-04-12T03:13:57;2.25;;;0.50;;
50267;SDS011;36153;50.960;6.220;2023-04-12T03:16:57;2.08;;;0.70;;
50267;SDS011;36153;50.960;6.220;2023-04-12T03:20:06;1.75;;;0.60;;
50267;SDS011;36153;50.960;6.220;2023-04-12T03:23:08;1.10;;;0.40;;
50267;SDS011;36153;50.960;6.220;2023-04-12T03:26:09;0.65;;;0.30;;
50267;SDS011;36153;50.960;6.220;2023-04-12T03:29:09;0.82;;;0.32;;
50267;SDS011;36153;50.960;6.220;2023-04-12T03:32:10;0.80;;;0.55;;
50267;SDS011;36153;50.960;6.220;2023-04-12T03:35:10;0.85;;;0.60;;
50267;SDS011;36153;50.960;6.220;2023-04-12T03:38:11;2.20;;;0.60;;
50267;SDS011;36153;50.960;6.220;2023-04-12T03:41:11;0.57;;;0.40;;
50267;SDS011;36153;50.960;6.220;2023-04-12T03:44:11;1.85;;;0.47;;
50267;SDS011;36153;50.960;6.220;2023-04-12T03:47:12;0.68;;;0.30;;
50267;SDS011;36153;50.960;6.220;2023-04-12T03:50:12;1.05;;;0.50;;
50267;SDS011;36153;50.960;6.220;2023-04-12T03:53:12;1.13;;;0.60;;
50267;SDS011;36153;50.960;6.220;2023-04-12T03:56:13;0.80;;;0.40;;
50267;SDS011;36153;50.960;6.220;2023-04-12T03:59:13;1.67;;;0.47;;
50267;SDS011;36153;50.960;6.220;2023-04-12T04:02:14;1.50;;;0.73;;
50267;SDS011;36153;50.960;6.220;2023-04-12T04:05:14;0.82;;;0.40;;
50267;SDS011;36153;50.960;6.220;2023-04-12T04:08:15;0.73;;;0.35;;
50267;SDS011;36153;50.960;6.220;2023-04-12T04:11:16;0.57;;;0.30;;
50267;SDS011;36153;50.960;6.220;2023-04-12T04:14:16;1.05;;;0.50;;
50267;SDS011;36153;50.960;6.220;2023-04-12T04:17:16;0.90;;;0.60;;
50267;SDS011;36153;50.960;6.220;2023-04-12T04:20:17;0.65;;;0.52;;
50267;SDS011;36153;50.960;6.220;2023-04-12T04:23:18;2.08;;;0.70;;
50267;SDS011;36153;50.960;6.220;2023-04-12T04:26:18;0.80;;;0.57;;
50267;SDS011;36153;50.960;6.220;2023-04-12T04:29:19;0.80;;;0.43;;
50267;SDS011;36153;50.960;6.220;2023-04-12T04:32:19;1.25;;;0.50;;
50267;SDS011;36153;50.960;6.220;2023-04-12T04:35:20;0.60;;;0.43;;
50267;SDS011;36153;50.960;6.220;2023-04-12T04:38:20;0.95;;;0.40;;
50267;SDS011;36153;50.960;6.220;2023-04-12T04:44:25;0.40;;;0.30;;
50267;SDS011;36153;50.960;6.220;2023-04-12T04:47:25;1.48;;;0.30;;
50267;SDS011;36153;50.960;6.220;2023-04-12T04:50:29;0.77;;;0.40;;
50267;SDS011;36153;50.960;6.220;2023-04-12T04:53:30;1.15;;;0.30;;
50267;SDS011;36153;50.960;6.220;2023-04-12T04:56:30;0.77;;;0.57;;
50267;SDS011;36153;50.960;6.220;2023-04-12T04:59:31;0.60;;;0.20;;
50267;SDS011;36153;50.960;6.220;2023-04-12T05:02:32;1.42;;;0.52;;
50267;SDS011;36153;50.960;6.220;2023-04-12T05:05:32;0.60;;;0.45;;
50267;SDS011;36153;50.960;6.220;2023-04-12T05:08:33;0.65;;;0.25;;
50267;SDS011;36153;50.960;6.220;2023-04-12T05:11:33;0.35;;;0.15;;
50267;SDS011;36153;50.960;6.220;2023-04-12T05:14:34;0.70;;;0.30;;
50267;SDS011;36153;50.960;6.220;2023-04-12T05:17:37;0.40;;;0.13;;
50267;SDS011;36153;50.960;6.220;2023-04-12T05:20:37;1.05;;;0.40;;
50267;SDS011;36153;50.960;6.220;2023-04-12T05:23:41;1.85;;;0.43;;
50267;SDS011;36153;50.960;6.220;2023-04-12T05:26:44;0.50;;;0.20;;
50267;SDS011;36153;50.960;6.220;2023-04-12T05:29:46;0.40;;;0.30;;
50267;SDS011;36153;50.960;6.220;2023-04-12T05:32:46;0.30;;;0.20;;
50267;SDS011;36153;50.960;6.220;2023-04-12T05:35:47;1.17;;;0.40;;
50267;SDS011;36153;50.960;6.220;2023-04-12T05:38:47;1.42;;;0.40;;
50267;SDS011;36153;50.960;6.220;2023-04-12T05:41:48;0.47;;;0.30;;
50267;SDS011;36153;50.960;6.220;2023-04-12T05:44:48;1.05;;;0.40;;
50267;SDS011;36153;50.960;6.220;2023-04-12T05:47:49;0.50;;;0.30;;
50267;SDS011;36153;50.960;6.220;2023-04-12T05:50:50;0.82;;;0.45;;
50267;SDS011;36153;50.960;6.220;2023-04-12T05:53:51;0.57;;;0.30;;
50267;SDS011;36153;50.960;6.220;2023-04-12T05:56:52;1.08;;;0.43;;
50267;SDS011;36153;50.960;6.220;2023-04-12T06:02:56;1.07;;;0.40;;
50267;SDS011;36153;50.960;6.220;2023-04-12T06:05:57;0.40;;;0.30;;
50267;SDS011;36153;50.960;6.220;2023-04-12T06:08:57;0.85;;;0.63;;
50267;SDS011;36153;50.960;6.220;2023-04-12T06:11:59;0.63;;;0.20;;
50267;SDS011;36153;50.960;6.220;2023-04-12T06:15:00;1.85;;;0.20;;
50267;SDS011;36153;50.960;6.220;2023-04-12T06:18:01;0.60;;;0.30;;
50267;SDS011;36153;50.960;6.220;2023-04-12T06:21:01;0.68;;;0.30;;
50267;SDS011;36153;50.960;6.220;2023-04-12T06:24:01;0.20;;;0.10;;
50267;SDS011;36153;50.960;6.220;2023-04-12T06:27:02;0.68;;;0.40;;
50267;SDS011;36153;50.960;6.220;2023-04-12T06:30:02;0.63;;;0.20;;
50267;SDS011;36153;50.960;6.220;2023-04-12T06:33:03;0.30;;;0.20;;
50267;SDS011;36153;50.960;6.220;2023-04-12T06:36:03;0.35;;;0.25;;
50267;SDS011;36153;50.960;6.220;2023-04-12T06:39:04;0.50;;;0.40;;
50267;SDS011;36153;50.960;6.220;2023-04-12T06:42:05;0.90;;;0.28;;
50267;SDS011;36153;50.960;6.220;2023-04-12T06:45:06;1.05;;;0.40;;
50267;SDS011;36153;50.960;6.220;2023-04-12T06:48:06;1.95;;;0.45;;
50267;SDS011;36153;50.960;6.220;2023-04-12T06:51:07;1.10;;;0.60;;
50267;SDS011;36153;50.960;6.220;2023-04-12T06:54:07;0.82;;;0.43;;
50267;SDS011;36153;50.960;6.220;2023-04-12T06:57:08;1.33;;;0.82;;
50267;SDS011;36153;50.960;6.220;2023-04-12T07:00:10;1.25;;;0.20;;
50267;SDS011;36153;50.960;6.220;2023-04-12T07:03:12;0.50;;;0.20;;
50267;SDS011;36153;50.960;6.220;2023-04-12T07:06:13;1.00;;;0.40;;
50267;SDS011;36153;50.960;6.220;2023-04-12T07:09:13;1.10;;;0.47;;
50267;SDS011;36153;50.960;6.220;2023-04-12T07:12:13;0.30;;;0.20;;
50267;SDS011;36153;50.960;6.220;2023-04-12T07:15:14;0.43;;;0.22;;
50267;SDS011;36153;50.960;6.220;2023-04-12T07:18:15;0.22;;;0.20;;
50267;SDS011;36153;50.960;6.220;2023-04-12T07:21:15;0.30;;;0.28;;
50267;SDS011;36153;50.960;6.220;2023-04-12T07:24:16;1.70;;;0.30;;
50267;SDS011;36153;50.960;6.220;2023-04-12T07:27:17;0.30;;;0.20;;
50267;SDS011;36153;50.960;6.220;2023-04-12T07:30:17;0.47;;;0.10;;
50267;SDS011;36153;50.960;6.220;2023-04-12T07:33:18;0.25;;;0.20;;
50267;SDS011;36153;50.960;6.220;2023-04-12T07:36:18;1.13;;;0.30;;
50267;SDS011;36153;50.960;6.220;2023-04-12T07:39:21;0.20;;;0.10;;
50267;SDS011;36153;50.960;6.220;2023-04-12T07:42:21;0.20;;;0.17;;
50267;SDS011;36153;50.960;6.220;2023-04-12T07:45:21;0.30;;;0.20;;
50267;SDS011;36153;50.960;6.220;2023-04-12T07:48:22;0.65;;;0.30;;
50267;SDS011;36153;50.960;6.220;2023-04-12T07:51:22;0.40;;;0.10;;
50267;SDS011;36153;50.960;6.220;2023-04-12T07:54:25;0.60;;;0.30;;
50267;SDS011;36153;50.960;6.220;2023-04-12T08:00:27;0.80;;;0.30;;
50267;SDS011;36153;50.960;6.220;2023-04-12T08:03:27;0.52;;;0.10;;
50267;SDS011;36153;50.960;6.220;2023-04-12T08:06:28;0.20;;;0.10;;
50267;SDS011;36153;50.960;6.220;2023-04-12T08:09:28;0.73;;;0.30;;
50267;SDS011;36153;50.960;6.220;2023-04-12T08:12:29;0.30;;;0.20;;
50267;SDS011;36153;50.960;6.220;2023-04-12T08:15:30;0.30;;;0.30;;
50267;SDS011;36153;50.960;6.220;2023-04-12T08:18:30;0.50;;;0.28;;
50267;SDS011;36153;50.960;6.220;2023-04-12T08:21:31;0.17;;;0.00;;
50267;SDS011;36153;50.960;6.220;2023-04-12T08:24:31;1.15;;;0.20;;
50267;SDS011;36153;50.960;6.220;2023-04-12T08:27:31;0.10;;;0.00;;
50267;SDS011;36153;50.960;6.220;2023-04-12T08:30:32;0.20;;;0.08;;
50267;SDS011;36153;50.960;6.220;2023-04-12T08:33:33;0.20;;;0.10;;
50267;SDS011;36153;50.960;6.220;2023-04-12T08:36:33;0.35;;;0.28;;
50267;SDS011;36153;50.960;6.220;2023-04-12T08:39:34;0.40;;;0.10;;
50267;SDS011;36153;50.960;6.220;2023-04-12T08:42:35;0.28;;;0.10;;
50267;SDS011;36153;50.960;6.220;2023-04-12T08:45:36;0.20;;;0.15;;
50267;SDS011;36153;50.960;6.220;2023-04-12T08:48:37;0.30;;;0.13;;
50267;SDS011;36153;50.960;6.220;2023-04-12T08:51:38;0.45;;;0.40;;
50267;SDS011;36153;50.960;6.220;2023-04-12T08:54:40;0.60;;;0.40;;
50267;SDS011;36153;50.960;6.220;2023-04-12T08:57:41;0.30;;;0.20;;
50267;SDS011;36153;50.960;6.220;2023-04-12T09:00:43;0.47;;;0.25;;
50267;SDS011;36153;50.960;6.220;2023-04-12T09:03:44;0.55;;;0.10;;
50267;SDS011;36153;50.960;6.220;2023-04-12T09:06:45;1.38;;;0.38;;
50267;SDS011;36153;50.960;6.220;2023-04-12T09:09:46;0.63;;;0.28;;
50267;SDS011;36153;50.960;6.220;2023-04-12T09:12:47;0.55;;;0.30;;
50267;SDS011;36153;50.960;6.220;2023-04-12T09:15:48;0.50;;;0.20;;
50267;SDS011;36153;50.960;6.220;2023-04-12T09:18:49;3.72;;;0.30;;
50267;SDS011;36153;50.960;6.220;2023-04-12T09:21:51;0.60;;;0.40;;
50267;SDS011;36153;50.960;6.220;2023-04-12T09:24:53;0.98;;;0.80;;
50267;SDS011;36153;50.960;6.220;2023-04-12T09:27:54;1.20;;;1.10;;
50267;SDS011;36153;50.960;6.220;2023-04-12T09:30:56;4.45;;;0.93;;
50267;SDS011;36153;50.960;6.220;2023-04-12T09:34:07;5.63;;;1.95;;
50267;SDS011;36153;50.960;6.220;2023-04-12T09:37:15;6.15;;;1.65;;
50267;SDS011;36153;50.960;6.220;2023-04-12T09:40:16;6.35;;;2.15;;
50267;SDS011;36153;50.960;6.220;2023-04-12T09:43:38;5.13;;;1.30;;
50267;SDS011;36153;50.960;6.220;2023-04-12T09:46:48;2.42;;;1.77;;
50267;SDS011;36153;50.960;6.220;2023-04-12T09:49:50;3.83;;;1.65;;
50267;SDS011;36153;50.960;6.220;2023-04-12T09:52:52;3.83;;;0.88;;
50267;SDS011;36153;50.960;6.220;2023-04-12T09:55:53;6.30;;;2.13;;
50267;SDS011;36153;50.960;6.220;2023-04-12T09:58:56;1.77;;;0.90;;
50267;SDS011;36153;50.960;6.220;2023-04-12T10:02:02;4.07;;;0.98;;
50267;SDS011;36153;50.960;6.220;2023-04-12T10:05:19;6.00;;;1.20;;
50267;SDS011;36153;50.960;6.220;2023-04-12T10:08:21;4.78;;;1.38;;
50267;SDS011;36153;50.960;6.220;2023-04-12T10:11:24;3.78;;;1.35;;
50267;SDS011;36153;50.960;6.220;2023-04-12T10:14:27;1.85;;;0.60;;
50267;SDS011;36153;50.960;6.220;2023-04-12T10:17:28;5.40;;;1.00;;
50267;SDS011;36153;50.960;6.220;2023-04-12T10:21:14;4.20;;;1.52;;
50267;SDS011;36153;50.960;6.220;2023-04-12T10:24:03;5.32;;;1.55;;
50267;SDS011;36153;50.960;6.220;2023-04-12T10:27:05;2.75;;;0.95;;
50267;SDS011;36153;50.960;6.220;2023-04-12T10:33:23;3.55;;;1.08;;
50267;SDS011;36153;50.960;6.220;2023-04-12T10:40:05;4.43;;;0.90;;
50267;SDS011;36153;50.960;6.220;2023-04-12T10:49:38;5.30;;;1.08;;
50267;SDS011;36153;50.960;6.220;2023-04-12T10:52:38;7.75;;;1.90;;
50267;SDS011;36153;50.960;6.220;2023-04-12T10:55:41;6.00;;;1.30;;
50267;SDS011;36153;50.960;6.220;2023-04-12T11:02:28;3.20;;;0.70;;
50267;SDS011;36153;50.960;6.220;2023-04-12T11:05:10;6.20;;;1.25;;
50267;SDS011;36153;50.960;6.220;2023-04-12T11:08:13;3.72;;;1.00;;
50267;SDS011;36153;50.960;6.220;2023-04-12T11:11:17;2.83;;;1.00;;
50267;SDS011;36153;50.960;6.220;2023-04-12T11:17:55;4.15;;;1.17;;
50267;SDS011;36153;50.960;6.220;2023-04-12T11:20:56;5.22;;;1.10;;
50267;SDS011;36153;50.960;6.220;2023-04-12T11:23:57;6.35;;;1.00;;
50267;SDS011;36153;50.960;6.220;2023-04-12T11:26:58;5.13;;;1.20;;
50267;SDS011;36153;50.960;6.220;2023-04-12T11:30:00;3.53;;;1.05;;
50267;SDS011;36153;50.960;6.220;2023-04-12T11:33:01;3.30;;;0.70;;
50267;SDS011;36153;50.960;6.220;2023-04-12T11:36:08;4.18;;;1.13;;
50267;SDS011;36153;50.960;6.220;2023-04-12T11:39:13;8.05;;;1.30;;
50267;SDS011;36153;50.960;6.220;2023-04-12T11:42:18;4.40;;;1.08;;
50267;SDS011;36153;50.960;6.220;2023-04-12T11:45:20;7.28;;;2.17;;
50267;SDS011;36153;50.960;6.220;2023-04-12T11:48:20;6.90;;;1.67;;
50267;SDS011;36153;50.960;6.220;2023-04-12T11:51:21;7.32;;;1.58;;
50267;SDS011;36153;50.960;6.220;2023-04-12T11:54:26;5.20;;;1.00;;
50267;SDS011;36153;50.960;6.220;2023-04-12T11:57:28;9.15;;;3.45;;
50267;SDS011;36153;50.960;6.220;2023-04-12T12:00:29;4.05;;;1.30;;
50267;SDS011;36153;50.960;6.220;2023-04-12T12:03:30;4.97;;;0.90;;
50267;SDS011;36153;50.960;6.220;2023-04-12T12:06:31;5.00;;;1.35;;
50267;SDS011;36153;50.960;6.220;2023-04-12T12:09:32;17.40;;;11.07;;
50267;SDS011;36153;50.960;6.220;2023-04-12T12:12:33;14.43;;;6.38;;
50267;SDS011;36153;50.960;6.220;2023-04-12T12:15:34;8.40;;;3.38;;
50267;SDS011;36153;50.960;6.220;2023-04-12T12:18:38;6.20;;;2.78;;
50267;SDS011;36153;50.960;6.220;2023-04-12T12:21:42;4.13;;;1.05;;
50267;SDS011;36153;50.960;6.220;2023-04-12T12:27:57;4.07;;;1.10;;
50267;SDS011;36153;50.960;6.220;2023-04-12T12:30:58;2.95;;;1.00;;
50267;SDS011;36153;50.960;6.220;2023-04-12T12:33:59;6.07;;;1.63;;
50267;SDS011;36153;50.960;6.220;2023-04-12T12:43:18;6.53;;;1.45;;
50267;SDS011;36153;50.960;6.220;2023-04-12T12:49:22;7.10;;;1.00;;
50267;SDS011;36153;50.960;6.220;2023-04-12T12:52:22;9.00;;;2.22;;
50267;SDS011;36153;50.960;6.220;2023-04-12T12:55:43;8.02;;;1.38;;
50267;SDS011;36153;50.960;6.220;2023-04-12T12:58:57;7.57;;;1.98;;
50267;SDS011;36153;50.960;6.220;2023-04-12T13:02:14;7.18;;;1.83;;
50267;SDS011;36153;50.960;6.220;2023-04-12T13:05:31;7.72;;;1.40;;
50267;SDS011;36153;50.960;6.220;2023-04-12T13:08:32;5.70;;;1.27;;
50267;SDS011;36153;50.960;6.220;2023-04-12T13:11:35;5.55;;;1.38;;
50267;SDS011;36153;50.960;6.220;2023-04-12T13:14:36;6.65;;;1.10;;
50267;SDS011;36153;50.960;6.220;2023-04-12T13:17:36;6.50;;;1.67;;
50267;SDS011;36153;50.960;6.220;2023-04-12T13:20:36;2.92;;;0.98;;
50267;SDS011;36153;50.960;6.220;2023-04-12T13:23:37;4.18;;;0.93;;
50267;SDS011;36153;50.960;6.220;2023-04-12T13:26:40;6.28;;;1.90;;
50267;SDS011;36153;50.960;6.220;2023-04-12T13:29:42;2.28;;;1.10;;
50267;SDS011;36153;50.960;6.220;2023-04-12T13:32:42;8.10;;;3.70;;
50267;SDS011;36153;50.960;6.220;2023-04-12T13:35:48;6.15;;;3.08;;
50267;SDS011;36153;50.960;6.220;2023-04-12T13:38:49;6.32;;;4.82;;
50267;SDS011;36153;50.960;6.220;2023-04-12T13:41:49;8.05;;;2.03;;
50267;SDS011;36153;50.960;6.220;2023-04-12T13:44:50;2.47;;;1.10;;
50267;SDS011;36153;50.960;6.220;2023-04-12T13:47:51;2.33;;;1.35;;
50267;SDS011;36153;50.960;6.220;2023-04-12T13:50:51;3.20;;;1.50;;
50267;SDS011;36153;50.960;6.220;2023-04-12T13:53:52;2.63;;;1.13;;
50267;SDS011;36153;50.960;6.220;2023-04-12T13:56:53;2.35;;;1.10;;
50267;SDS011;36153;50.960;6.220;2023-04-12T13:59:53;4.18;;;1.50;;
50267;SDS011;36153;50.960;6.220;2023-04-12T14:02:54;1.90;;;0.77;;
50267;SDS011;36153;50.960;6.220;2023-04-12T14:05:55;3.30;;;0.80;;
50267;SDS011;36153;50.960;6.220;2023-04-12T14:08:55;4.10;;;0.63;;
50267;SDS011;36153;50.960;6.220;2023-04-12T14:11:57;4.85;;;1.00;;
50267;SDS011;36153;50.960;6.220;2023-04-12T14:15:00;4.30;;;1.92;;
50267;SDS011;36153;50.960;6.220;2023-04-12T14:18:01;2.65;;;1.00;;
50267;SDS011;36153;50.960;6.220;2023-04-12T14:21:05;3.95;;;1.60;;
50267;SDS011;36153;50.960;6.220;2023-04-12T14:24:22;3.88;;;1.13;;
50267;SDS011;36153;50.960;6.220;2023-04-12T14:27:22;4.13;;;1.23;;
50267;SDS011;36153;50.960;6.220;2023-04-12T14:30:23;2.47;;;0.40;;
50267;SDS011;36153;50.960;6.220;2023-04-12T14:33:23;4.70;;;1.35;;
50267;SDS011;36153;50.960;6.220;2023-04-12T14:36:24;6.55;;;2.33;;
50267;SDS011;36153;50.960;6.220;2023-04-12T14:39:26;7.25;;;2.72;;
50267;SDS011;36153;50.960;6.220;2023-04-12T14:42:26;4.03;;;1.10;;
50267;SDS011;36153;50.960;6.220;2023-04-12T14:45:27;1.92;;;0.60;;
50267;SDS011;36153;50.960;6.220;2023-04-12T14:48:27;3.58;;;0.77;;
50267;SDS011;36153;50.960;6.220;2023-04-12T14:51:34;2.95;;;1.90;;
50267;SDS011;36153;50.960;6.220;2023-04-12T14:54:38;4.60;;;1.58;;
50267;SDS011;36153;50.960;6.220;2023-04-12T14:57:38;4.38;;;1.42;;
50267;SDS011;36153;50.960;6.220;2023-04-12T15:00:39;1.75;;;1.33;;
50267;SDS011;36153;50.960;6.220;2023-04-12T15:03:39;1.00;;;0.55;;
50267;SDS011;36153;50.960;6.220;2023-04-12T15:06:43;3.00;;;0.80;;
50267;SDS011;36153;50.960;6.220;2023-04-12T15:09:44;1.88;;;0.80;;
50267;SDS011;36153;50.960;6.220;2023-04-12T15:12:44;1.02;;;0.50;;
50267;SDS011;36153;50.960;6.220;2023-04-12T15:15:45;2.80;;;0.57;;
50267;SDS011;36153;50.960;6.220;2023-04-12T15:18:46;0.70;;;0.57;;
50267;SDS011;36153;50.960;6.220;2023-04-12T15:21:56;1.27;;;0.60;;
50267;SDS011;36153;50.960;6.220;2023-04-12T15:24:57;0.77;;;0.50;;
50267;SDS011;36153;50.960;6.220;2023-04-12T15:28:00;0.63;;;0.30;;
50267;SDS011;36153;50.960;6.220;2023-04-12T15:31:01;0.63;;;0.40;;
50267;SDS011;36153;50.960;6.220;2023-04-12T15:34:01;0.85;;;0.30;;
50267;SDS011;36153;50.960;6.220;2023-04-12T15:37:02;3.13;;;1.27;;
50267;SDS011;36153;50.960;6.220;2023-04-12T15:40:02;2.47;;;1.73;;
50267;SDS011;36153;50.960;6.220;2023-04-12T15:43:12;2.28;;;1.58;;
50267;SDS011;36153;50.960;6.220;2023-04-12T15:46:13;1.30;;;0.40;;
50267;SDS011;36153;50.960;6.220;2023-04-12T15:49:13;0.88;;;0.30;;
50267;SDS011;36153;50.960;6.220;2023-04-12T15:52:16;3.33;;;0.50;;
50267;SDS011;36153;50.960;6.220;2023-04-12T15:55:16;0.77;;;0.40;;
50267;SDS011;36153;50.960;6.220;2023-04-12T15:58:17;0.90;;;0.30;;
50267;SDS011;36153;50.960;6.220;2023-04-12T16:01:18;0.40;;;0.30;;
50267;SDS011;36153;50.960;6.220;2023-04-12T16:04:19;0.88;;;0.47;;
50267;SDS011;36153;50.960;6.220;2023-04-12T16:07:19;1.52;;;0.55;;
50267;SDS011;36153;50.960;6.220;2023-04-12T16:10:20;2.08;;;0.40;;
50267;SDS011;36153;50.960;6.220;2023-04-12T16:13:21;1.08;;;0.20;;
50267;SDS011;36153;50.960;6.220;2023-04-12T16:16:21;0.88;;;0.30;;
50267;SDS011;36153;50.960;6.220;2023-04-12T16:19:22;0.88;;;0.65;;
50267;SDS011;36153;50.960;6.220;2023-04-12T16:22:22;1.90;;;0.40;;
50267;SDS011;36153;50.960;6.220;2023-04-12T16:25:23;2.63;;;0.50;;
50267;SDS011;36153;50.960;6.220;2023-04-12T16:28:26;1.40;;;0.43;;
50267;SDS011;36153;50.960;6.220;2023-04-12T16:31:27;1.20;;;0.60;;
50267;SDS011;36153;50.960;6.220;2023-04-12T16:34:28;0.82;;;0.30;;
50267;SDS011;36153;50.960;6.220;2023-04-12T16:37:28;1.55;;;0.45;;
50267;SDS011;36153;50.960;6.220;2023-04-12T16:40:30;1.15;;;0.40;;
50267;SDS011;36153;50.960;6.220;2023-04-12T16:43:30;3.08;;;0.47;;
50267;SDS011;36153;50.960;6.220;2023-04-12T16:46:31;1.35;;;0.40;;
50267;SDS011;36153;50.960;6.220;2023-04-12T16:49:31;1.77;;;0.50;;
50267;SDS011;36153;50.960;6.220;2023-04-12T16:52:31;1.48;;;0.50;;
50267;SDS011;36153;50.960;6.220;2023-04-12T16:55:32;0.80;;;0.45;;
50267;SDS011;36153;50.960;6.220;2023-04-12T16:58:32;2.15;;;0.55;;
50267;SDS011;36153;50.960;6.220;2023-04-12T17:01:33;3.15;;;1.45;;
50267;SDS011;36153;50.960;6.220;2023-04-12T17:04:33;0.60;;;0.43;;
50267;SDS011;36153;50.960;6.220;2023-04-12T17:07:34;1.13;;;0.30;;
50267;SDS011;36153;50.960;6.220;2023-04-12T17:10:34;1.52;;;0.40;;
50267;SDS011;36153;50.960;6.220;2023-04-12T17:13:35;1.02;;;0.40;;
50267;SDS011;36153;50.960;6.220;2023-04-12T17:16:36;2.35;;;0.30;;
50267;SDS011;36153;50.960;6.220;2023-04-12T17:19:36;2.08;;;0.45;;
50267;SDS011;36153;50.960;6.220;2023-04-12T17:22:37;0.85;;;0.40;;
50267;SDS011;36153;50.960;6.220;2023-04-12T17:25:37;0.80;;;0.75;;
50267;SDS011;36153;50.960;6.220;2023-04-12T17:28:38;1.42;;;0.40;;
50267;SDS011;36153;50.960;6.220;2023-04-12T17:31:38;1.23;;;0.65;;
50267;SDS011;36153;50.960;6.220;2023-04-12T17:34:39;1.08;;;0.50;;
50267;SDS011;36153;50.960;6.220;2023-04-12T17:37:41;2.17;;;0.77;;
50267;SDS011;36153;50.960;6.220;2023-04-12T17:40:41;3.33;;;0.63;;
50267;SDS011;36153;50.960;6.220;2023-04-12T17:43:43;2.42;;;0.70;;
50267;SDS011;36153;50.960;6.220;2023-04-12T17:46:44;4.93;;;1.17;;
50267;SDS011;36153;50.960;6.220;2023-04-12T17:49:45;1.17;;;1.05;;
50267;SDS011;36153;50.960;6.220;2023-04-12T17:52:45;4.57;;;0.90;;
50267;SDS011;36153;50.960;6.220;2023-04-12T17:55:46;1.25;;;0.75;;
50267;SDS011;36153;50.960;6.220;2023-04-12T17:58:47;0.95;;;0.57;;
50267;SDS011;36153;50.960;6.220;2023-04-12T18:01:47;1.63;;;0.65;;
50267;SDS011;36153;50.960;6.220;2023-04-12T18:04:47;0.80;;;0.30;;
50267;SDS011;36153;50.960;6.220;2023-04-12T18:07:48;0.85;;;0.80;;
50267;SDS011;36153;50.960;6.220;2023-04-12T18:10:48;3.40;;;1.98;;
50267;SDS011;36153;50.960;6.220;2023-04-12T18:13:49;2.20;;;1.50;;
50267;SDS011;36153;50.960;6.220;2023-04-12T18:16:49;2.45;;;0.98;;
50267;SDS011;36153;50.960;6.220;2023-04-12T18:19:50;0.68;;;0.65;;
50267;SDS011;36153;50.960;6.220;2023-04-12T18:22:50;0.47;;;0.20;;
50267;SDS011;36153;50.960;6.220;2023-04-12T18:25:53;1.23;;;0.60;;
50267;SDS011;36153;50.960;6.220;2023-04-12T18:28:53;1.00;;;0.68;;
50267;SDS011;36153;50.960;6.220;2023-04-12T18:31:54;1.13;;;0.52;;
50267;SDS011;36153;50.960;6.220;2023-04-12T18:34:54;1.02;;;0.43;;
50267;SDS011;36153;50.960;6.220;2023-04-12T18:37:55;1.15;;;0.40;;
50267;SDS011;36153;50.960;6.220;2023-04-12T18:40:56;1.05;;;0.60;;
50267;SDS011;36153;50.960;6.220;2023-04-12T18:43:56;1.95;;;0.93;;
50267;SDS011;36153;50.960;6.220;2023-04-12T18:46:57;0.85;;;0.50;;
50267;SDS011;36153;50.960;6.220;2023-04-12T18:49:57;0.60;;;0.40;;
50267;SDS011;36153;50.960;6.220;2023-04-12T18:52:57;1.10;;;0.52;;
50267;SDS011;36153;50.960;6.220;2023-04-12T18:56:05;5.35;;;2.42;;
50267;SDS011;36153;50.960;6.220;2023-04-12T18:59:07;3.88;;;2.45;;
50267;SDS011;36153;50.960;6.220;2023-04-12T19:02:08;4.60;;;2.17;;
50267;SDS011;36153;50.960;6.220;2023-04-12T19:05:08;3.65;;;1.70;;
50267;SDS011;36153;50.960;6.220;2023-04-12T19:08:13;7.70;;;3.22;;